createdAt,value
2022-09-13T00:01:46.050Z,13.00
2022-09-13T00:08:10.423Z,13.90
2022-09-13T00:14:34.344Z,12.40
2022-09-13T00:20:58.537Z,12.00
2022-09-13T00:27:22.804Z,11.70
2022-09-13T00:33:47.006Z,11.80
2022-09-13T00:40:11.405Z,11.90
2022-09-13T00:46:35.765Z,11.30
2022-09-13T00:53:00.050Z,11.00
2022-09-13T00:59:27.268Z,12.70
2022-09-13T01:05:51.512Z,11.40
2022-09-13T01:12:21.718Z,12.80
2022-09-13T01:18:38.559Z,11.20
2022-09-13T01:25:07.650Z,11.80
2022-09-13T01:31:49.931Z,10.00
2022-09-13T01:38:35.410Z,9.80
2022-09-13T01:45:02.168Z,10.00
2022-09-13T01:51:32.849Z,10.90
2022-09-13T01:57:57.206Z,9.90
2022-09-13T02:04:19.907Z,8.80
2022-09-13T02:10:44.223Z,10.40
2022-09-13T02:17:17.232Z,9.30
2022-09-13T02:23:41.561Z,8.70
2022-09-13T02:30:05.833Z,7.60
2022-09-13T02:36:42.353Z,8.00
2022-09-13T02:43:15.573Z,8.00
2022-09-13T02:49:39.783Z,7.70
2022-09-13T02:56:10.081Z,8.30
2022-09-13T03:02:40.504Z,8.10
2022-09-13T03:09:04.876Z,7.80
2022-09-13T03:15:47.138Z,8.10
2022-09-13T03:22:26.591Z,7.10
2022-09-13T03:29:02.919Z,5.90
2022-09-13T03:35:34.813Z,7.10
2022-09-13T03:42:01.658Z,8.20
2022-09-13T03:48:25.932Z,6.60
2022-09-13T03:54:53.322Z,8.10
2022-09-13T04:01:17.814Z,7.50
2022-09-13T04:07:42.181Z,6.60
2022-09-13T04:14:06.457Z,6.30
2022-09-13T04:20:30.979Z,6.20
2022-09-13T04:26:55.163Z,6.20
2022-09-13T04:33:19.419Z,7.40
2022-09-13T04:39:43.758Z,6.60
2022-09-13T04:46:08.239Z,6.00
2022-09-13T04:52:32.588Z,6.40
2022-09-13T04:58:56.844Z,7.40
2022-09-13T05:05:21.191Z,6.50
2022-09-13T05:11:45.977Z,5.30
2022-09-13T05:18:10.270Z,7.10
2022-09-13T05:24:34.596Z,6.30
2022-09-13T05:30:59.021Z,5.20
2022-09-13T05:37:23.320Z,5.90
2022-09-13T05:43:47.622Z,5.60
2022-09-13T05:50:22.262Z,5.40
2022-09-13T05:56:56.007Z,4.50
2022-09-13T06:03:19.005Z,5.90
2022-09-13T06:09:43.401Z,4.90
2022-09-13T06:16:07.822Z,4.90
2022-09-13T06:22:32.211Z,5.90
2022-09-13T06:28:56.403Z,4.70
2022-09-13T06:35:20.631Z,4.40
2022-09-13T06:41:47.604Z,4.70
2022-09-13T06:48:11.817Z,4.10
2022-09-13T06:54:36.036Z,5.10
2022-09-13T07:01:00.476Z,4.50
2022-09-13T07:07:24.758Z,4.50
2022-09-13T07:13:49.055Z,5.50
2022-09-13T07:20:13.393Z,3.90
2022-09-13T07:26:37.681Z,4.20
2022-09-13T07:33:02.035Z,4.30
2022-09-13T07:39:26.318Z,4.20
2022-09-13T07:45:50.931Z,3.60
2022-09-13T07:52:15.141Z,3.80
2022-09-13T07:58:39.229Z,5.70
2022-09-13T08:05:03.713Z,3.60
2022-09-13T08:11:26.709Z,4.90
2022-09-13T08:17:51.027Z,3.80
2022-09-13T08:24:15.380Z,5.40
2022-09-13T08:30:40.138Z,4.60
2022-09-13T08:37:04.514Z,4.80
2022-09-13T08:43:31.788Z,4.50
2022-09-13T08:49:56.106Z,4.30
2022-09-13T08:56:25.118Z,5.00
2022-09-13T09:03:22.226Z,3.80
2022-09-13T09:09:55.737Z,3.80
2022-09-13T09:16:25.613Z,4.30
2022-09-13T09:22:58.445Z,4.10
2022-09-13T09:29:25.114Z,6.20
2022-09-13T09:35:48.250Z,3.50
2022-09-13T09:42:12.525Z,5.70
2022-09-13T09:48:40.490Z,4.10
2022-09-13T09:55:04.686Z,3.90
2022-09-13T10:01:31.723Z,3.80
2022-09-13T10:08:10.014Z,3.80
2022-09-13T10:14:40.131Z,3.20
2022-09-13T10:21:16.510Z,4.10
2022-09-13T10:27:40.824Z,4.40
2022-09-13T10:34:10.963Z,4.10
2022-09-13T10:40:44.382Z,3.20
2022-09-13T10:47:08.784Z,4.00
2022-09-13T10:53:32.999Z,3.60
2022-09-13T11:00:06.490Z,3.10
2022-09-13T11:06:46.189Z,4.00
2022-09-13T11:13:22.433Z,2.70
2022-09-13T11:20:02.020Z,2.90
2022-09-13T11:26:41.428Z,3.90
2022-09-13T11:33:04.614Z,2.80
2022-09-13T11:39:28.458Z,3.80
2022-09-13T11:46:05.244Z,3.20
2022-09-13T11:52:30.637Z,3.00
2022-09-13T11:59:03.937Z,2.70
2022-09-13T12:05:34.501Z,3.00
2022-09-13T12:11:58.944Z,3.80
2022-09-13T12:18:29.213Z,3.00
2022-09-13T12:24:56.622Z,3.00
2022-09-13T12:31:21.066Z,2.50
2022-09-13T12:37:54.675Z,2.50
2022-09-13T12:44:17.599Z,2.90
2022-09-13T12:50:54.765Z,3.30
2022-09-13T12:57:34.176Z,2.60
2022-09-13T13:04:01.412Z,3.00
2022-09-13T13:10:28.634Z,4.00
2022-09-13T13:16:46.108Z,2.80
2022-09-13T13:23:24.564Z,2.50
2022-09-13T13:30:04.037Z,2.90
2022-09-13T13:36:31.140Z,2.30
2022-09-13T13:43:10.364Z,2.70
2022-09-13T13:49:34.857Z,2.70
2022-09-13T13:56:04.967Z,2.10
2022-09-13T14:02:29.180Z,3.00
2022-09-13T14:08:51.758Z,2.70
2022-09-13T14:15:34.632Z,2.20
2022-09-13T14:21:59.519Z,2.30
2022-09-13T14:28:26.590Z,2.50
2022-09-13T14:34:50.939Z,2.30
2022-09-13T14:41:15.196Z,2.70
2022-09-13T14:47:48.482Z,2.60
2022-09-13T14:54:16.146Z,2.50
2022-09-13T15:00:40.483Z,2.60
2022-09-13T15:07:04.563Z,3.10
2022-09-13T15:13:31.440Z,2.20
2022-09-13T15:19:57.120Z,2.60
2022-09-13T15:26:21.678Z,3.30
2022-09-13T15:32:46.033Z,2.50
2022-09-13T15:39:16.259Z,2.40
2022-09-13T15:45:40.533Z,2.30
2022-09-13T15:52:04.843Z,2.60
2022-09-13T15:58:29.082Z,2.80
2022-09-13T16:04:53.296Z,1.70
2022-09-13T16:11:17.491Z,2.90
2022-09-13T16:17:47.353Z,2.50
2022-09-13T16:24:11.634Z,2.20
2022-09-13T16:30:35.862Z,2.70
2022-09-13T16:37:00.056Z,4.30
2022-09-13T16:43:24.603Z,3.70
2022-09-13T16:49:54.674Z,2.50
2022-09-13T16:56:18.967Z,2.50
2022-09-13T17:02:43.517Z,2.60
2022-09-13T17:09:07.988Z,5.20
2022-09-13T17:15:32.256Z,3.00
2022-09-13T17:21:56.550Z,1.80
2022-09-13T17:28:20.720Z,2.30
2022-09-13T17:34:44.957Z,2.70
2022-09-13T17:41:09.326Z,2.60
2022-09-13T17:47:26.496Z,2.30
2022-09-13T17:53:50.956Z,2.60
2022-09-13T18:00:15.306Z,2.50
2022-09-13T18:06:39.620Z,2.70
2022-09-13T18:13:03.809Z,2.30
2022-09-13T18:19:44.984Z,5.40
2022-09-13T18:26:11.132Z,2.80
2022-09-13T18:32:35.508Z,2.90
2022-09-13T18:38:59.797Z,2.40
2022-09-13T18:45:13.874Z,3.20
2022-09-13T18:51:38.138Z,3.10
2022-09-13T18:58:02.910Z,3.00
2022-09-13T19:04:27.200Z,2.40
2022-09-13T19:10:51.489Z,4.10
2022-09-13T19:17:15.691Z,3.10
2022-09-13T19:23:58.367Z,3.40
2022-09-13T19:30:24.068Z,2.80
2022-09-13T19:36:48.452Z,2.80
2022-09-13T19:43:05.987Z,3.20
2022-09-13T19:49:30.258Z,3.00
2022-09-13T19:55:54.576Z,3.10
2022-09-13T20:02:19.017Z,3.10
2022-09-13T20:08:43.247Z,3.10
2022-09-13T20:15:07.615Z,3.90
2022-09-13T20:21:31.912Z,3.50
2022-09-13T20:27:56.135Z,2.50
2022-09-13T20:34:20.291Z,3.20
2022-09-13T20:40:47.546Z,2.30
2022-09-13T20:47:11.827Z,3.50
2022-09-13T20:53:36.177Z,3.20
2022-09-13T21:00:00.782Z,3.70
2022-09-13T21:06:25.095Z,3.10
2022-09-13T21:12:49.364Z,2.80
2022-09-13T21:18:58.728Z,2.80
2022-09-13T21:25:23.339Z,3.30
2022-09-13T21:31:56.693Z,4.00
2022-09-13T21:38:20.881Z,2.50
2022-09-13T21:44:43.727Z,3.80
2022-09-13T21:51:08.164Z,2.80
2022-09-13T21:57:32.470Z,3.10
2022-09-13T22:03:56.676Z,3.30
2022-09-13T22:10:20.975Z,3.60
2022-09-13T22:16:45.337Z,2.30
2022-09-13T22:23:09.619Z,4.00
2022-09-13T22:29:34.068Z,3.30
2022-09-13T22:35:58.328Z,4.10
2022-09-13T22:42:21.426Z,4.20
2022-09-13T22:48:45.727Z,3.80
2022-09-13T22:55:09.952Z,2.80
2022-09-13T23:01:34.216Z,3.00
2022-09-13T23:07:58.467Z,2.60
2022-09-13T23:14:22.755Z,3.20
2022-09-13T23:20:47.113Z,2.80
2022-09-13T23:27:11.493Z,3.30
2022-09-13T23:33:35.733Z,3.10
2022-09-13T23:40:00.066Z,3.40
2022-09-13T23:46:24.358Z,2.50
2022-09-13T23:52:48.559Z,3.70
2022-09-13T23:59:12.877Z,3.00
